createdAt,value
2019-05-18T00:01:58.209Z,83.63
2019-05-18T00:04:48.589Z,83.97
2019-05-18T00:07:31.791Z,84.28
2019-05-18T00:10:22.175Z,84.64
2019-05-18T00:13:05.405Z,84.90
2019-05-18T00:15:55.731Z,85.22
2019-05-18T00:18:38.909Z,85.66
2019-05-18T00:21:29.303Z,85.74
2019-05-18T00:24:12.669Z,85.99
2019-05-18T00:27:03.043Z,86.18
2019-05-18T00:29:46.220Z,86.29
2019-05-18T00:32:36.585Z,86.23
2019-05-18T00:35:19.409Z,86.64
2019-05-18T00:38:09.761Z,87.17
2019-05-18T00:40:53.328Z,87.74
2019-05-18T00:43:43.717Z,87.76
2019-05-18T00:46:27.077Z,87.71
2019-05-18T00:49:09.997Z,88.07
2019-05-18T00:52:00.331Z,88.21
2019-05-18T00:54:43.198Z,87.77
2019-05-18T00:57:33.566Z,88.07
2019-05-18T01:00:16.323Z,88.31
2019-05-18T01:03:06.666Z,88.33
2019-05-18T01:05:50.010Z,88.90
2019-05-18T01:08:40.358Z,89.09
2019-05-18T01:11:23.834Z,89.23
2019-05-18T01:14:06.428Z,88.99
2019-05-18T01:16:56.779Z,88.81
2019-05-18T01:19:40.028Z,88.36
2019-05-18T01:22:30.351Z,87.95
2019-05-18T01:25:13.636Z,87.84
2019-05-18T01:28:03.966Z,87.40
2019-05-18T01:30:47.091Z,87.33
2019-05-18T01:33:30.560Z,87.68
2019-05-18T01:36:20.942Z,87.91
2019-05-18T01:39:03.995Z,86.76
2019-05-18T01:41:54.322Z,89.98
2019-05-18T01:44:57.161Z,91.22
2019-05-18T01:47:47.478Z,91.45
2019-05-18T01:50:30.776Z,91.80
2019-05-18T01:53:21.107Z,91.84
2019-05-18T01:56:03.949Z,92.63
2019-05-18T01:58:54.280Z,92.22
2019-05-18T02:01:37.507Z,92.37
2019-05-18T02:04:27.909Z,92.08
2019-05-18T02:07:11.276Z,91.97
2019-05-18T02:10:01.653Z,91.85
2019-05-18T02:12:45.098Z,91.95
2019-05-18T02:15:35.465Z,91.58
2019-05-18T02:18:28.627Z,91.80
2019-05-18T02:21:10.200Z,92.23
2019-05-18T02:23:53.108Z,92.13
2019-05-18T02:26:36.419Z,92.84
2019-05-18T02:29:26.773Z,93.02
2019-05-18T02:32:10.070Z,93.56
2019-05-18T02:35:00.385Z,93.75
2019-05-18T02:37:43.483Z,93.86
2019-05-18T02:40:33.821Z,93.99
2019-05-18T02:43:17.396Z,94.50
2019-05-18T02:46:07.724Z,94.14
2019-05-18T02:48:51.259Z,93.76
2019-05-18T02:51:41.595Z,94.02
2019-05-18T02:54:23.431Z,94.23
2019-05-18T02:57:05.339Z,95.01
2019-05-18T02:59:48.770Z,94.41
2019-05-18T03:02:39.104Z,94.11
2019-05-18T03:05:21.825Z,94.45
2019-05-18T03:08:12.180Z,94.29
2019-05-18T03:10:55.635Z,94.29
2019-05-18T03:13:46.014Z,93.19
2019-05-18T03:16:29.213Z,93.36
2019-05-18T03:19:19.583Z,93.95
2019-05-18T03:22:02.040Z,94.53
2019-05-18T03:24:52.451Z,94.98
2019-05-18T03:27:35.881Z,95.20
2019-05-18T03:30:26.258Z,95.22
2019-05-18T03:33:16.603Z,95.35
2019-05-18T03:35:59.272Z,94.90
2019-05-18T03:38:49.622Z,93.73
2019-05-18T03:41:32.205Z,93.91
2019-05-18T03:44:22.571Z,94.27
2019-05-18T03:47:05.313Z,94.36
2019-05-18T03:49:55.655Z,93.91
2019-05-18T03:52:39.059Z,93.40
2019-05-18T03:55:29.404Z,91.77
2019-05-18T03:58:12.531Z,91.77
2019-05-18T04:01:03.058Z,92.07
2019-05-18T04:03:53.480Z,93.01
2019-05-18T04:06:36.609Z,93.30
2019-05-18T04:09:26.924Z,93.07
2019-05-18T04:12:10.138Z,92.98
2019-05-18T04:14:52.783Z,92.84
2019-05-18T04:17:43.122Z,92.69
2019-05-18T04:20:26.228Z,92.09
2019-05-18T04:23:16.542Z,91.80
2019-05-18T04:25:59.865Z,91.73
2019-05-18T04:28:50.180Z,91.27
2019-05-18T04:31:33.624Z,91.13
2019-05-18T04:34:23.973Z,90.53
2019-05-18T04:37:07.627Z,91.17
2019-05-18T04:39:57.942Z,91.45
2019-05-18T04:42:48.301Z,91.32
2019-05-18T04:45:29.877Z,90.95
2019-05-18T04:48:20.203Z,90.38
2019-05-18T04:51:03.066Z,90.87
2019-05-18T04:54:12.418Z,90.98
2019-05-18T04:56:55.821Z,90.09
2019-05-18T04:59:46.169Z,89.71
2019-05-18T05:02:29.627Z,89.48
2019-05-18T05:05:19.983Z,89.57
2019-05-18T05:08:03.281Z,89.56
2019-05-18T05:10:46.529Z,88.85
2019-05-18T05:13:36.929Z,88.43
2019-05-18T05:16:19.766Z,88.46
2019-05-18T05:19:10.133Z,87.82
2019-05-18T05:21:53.253Z,87.46
2019-05-18T05:24:43.628Z,86.85
2019-05-18T05:27:46.861Z,86.41
2019-05-18T05:30:38.034Z,84.87
2019-05-18T05:33:28.535Z,85.56
2019-05-18T05:36:11.504Z,84.91
2019-05-18T05:39:01.870Z,84.48
2019-05-18T05:41:45.327Z,83.84
2019-05-18T05:44:35.738Z,82.82
2019-05-18T05:47:18.391Z,82.72
2019-05-18T05:53:45.181Z,81.18
2019-05-18T05:56:27.817Z,81.33
2019-05-18T05:59:18.220Z,82.06
2019-05-18T06:02:00.840Z,82.23
2019-05-18T06:04:51.217Z,82.38
2019-05-18T06:07:34.294Z,81.30
2019-05-18T06:10:24.671Z,80.20
2019-05-18T06:13:07.415Z,78.33
2019-05-18T06:15:57.795Z,78.08
2019-05-18T06:18:40.355Z,77.06
2019-05-18T06:21:30.782Z,75.93
2019-05-18T06:24:21.202Z,74.71
2019-05-18T06:27:11.582Z,73.95
2019-05-18T06:30:01.955Z,73.40
2019-05-18T06:32:44.921Z,73.05
2019-05-18T06:35:35.267Z,72.77
2019-05-18T06:38:38.523Z,72.72
2019-05-18T06:41:28.912Z,72.33
2019-05-18T06:44:11.744Z,71.73
2019-05-18T06:47:02.151Z,69.56
2019-05-18T06:49:44.788Z,68.75
2019-05-18T06:52:35.141Z,68.69
2019-05-18T06:55:17.928Z,68.51
2019-05-18T06:58:08.414Z,68.60
2019-05-18T07:00:51.137Z,67.10
2019-05-18T07:03:44.949Z,65.88
2019-05-18T07:06:45.810Z,66.82
2019-05-18T07:09:36.165Z,66.37
2019-05-18T07:12:18.951Z,66.22
2019-05-18T07:18:37.777Z,64.48
2019-05-18T07:21:28.102Z,62.83
2019-05-18T07:24:11.257Z,63.03
2019-05-18T07:26:54.217Z,63.37
2019-05-18T07:29:44.590Z,62.10
2019-05-18T07:32:27.084Z,62.68
2019-05-18T07:35:17.743Z,61.02
2019-05-18T07:38:00.614Z,59.89
2019-05-18T07:40:50.978Z,59.27
2019-05-18T07:43:33.533Z,58.97
2019-05-18T07:46:23.908Z,58.49
2019-05-18T07:49:06.957Z,58.69
2019-05-18T07:51:57.364Z,57.74
2019-05-18T07:54:40.540Z,57.72
2019-05-18T07:57:30.888Z,57.16
2019-05-18T08:00:14.467Z,55.93
2019-05-18T08:03:04.844Z,54.70
2019-05-18T08:05:47.998Z,54.18
2019-05-18T08:08:38.360Z,53.34
2019-05-18T08:11:21.009Z,53.70
2019-05-18T08:14:11.344Z,53.44
2019-05-18T08:16:53.938Z,52.95
2019-05-18T08:19:44.208Z,51.46
2019-05-18T08:22:27.721Z,51.72
2019-05-18T08:25:18.045Z,50.79
2019-05-18T08:28:00.717Z,51.06
2019-05-18T08:30:51.049Z,49.85
2019-05-18T08:33:33.824Z,49.39
2019-05-18T08:36:24.172Z,48.09
2019-05-18T08:39:26.611Z,48.21
2019-05-18T08:42:16.961Z,48.81
2019-05-18T08:45:00.146Z,47.25
2019-05-18T08:47:50.487Z,49.15
2019-05-18T08:50:33.808Z,49.07
2019-05-18T08:53:24.274Z,49.54
2019-05-18T08:56:07.655Z,50.20
2019-05-18T08:58:58.009Z,50.85
2019-05-18T09:01:41.169Z,50.02
2019-05-18T09:04:31.713Z,50.88
2019-05-18T09:07:15.026Z,51.07
2019-05-18T09:10:05.815Z,50.98
2019-05-18T09:12:49.017Z,51.57
2019-05-18T09:15:39.438Z,51.76
2019-05-18T09:18:43.821Z,49.66
2019-05-18T09:21:34.231Z,48.62
2019-05-18T09:24:17.672Z,48.80
2019-05-18T09:27:08.058Z,46.65
2019-05-18T09:29:51.102Z,46.18
2019-05-18T09:32:41.441Z,46.61
2019-05-18T09:35:24.159Z,44.05
2019-05-18T09:38:14.645Z,43.00
2019-05-18T09:40:57.905Z,41.57
2019-05-18T09:43:47.630Z,40.83
2019-05-18T09:46:29.655Z,40.46
2019-05-18T09:49:12.520Z,39.55
2019-05-18T09:52:02.937Z,39.35
2019-05-18T09:54:46.036Z,37.92
2019-05-18T09:57:36.409Z,38.22
2019-05-18T10:00:21.281Z,37.96
2019-05-18T10:06:31.384Z,39.64
2019-05-18T10:09:13.990Z,38.96
2019-05-18T10:12:04.362Z,38.80
2019-05-18T10:14:47.417Z,35.59
2019-05-18T10:17:37.811Z,36.94
2019-05-18T10:20:20.829Z,35.08
2019-05-18T10:23:13.557Z,34.90
2019-05-18T10:26:15.485Z,34.73
2019-05-18T10:29:05.907Z,33.54
2019-05-18T10:31:48.535Z,33.06
2019-05-18T10:34:38.885Z,31.95
2019-05-18T10:37:21.525Z,32.34
2019-05-18T10:40:32.384Z,31.57
2019-05-18T10:43:15.472Z,32.45
2019-05-18T10:46:05.878Z,32.62
2019-05-18T10:48:49.335Z,32.78
2019-05-18T10:51:39.735Z,32.17
2019-05-18T10:54:23.319Z,31.88
2019-05-18T10:57:13.652Z,30.87
2019-05-18T10:59:56.340Z,27.58
2019-05-18T11:02:46.751Z,28.25
2019-05-18T11:05:29.568Z,29.04
2019-05-18T11:08:19.898Z,29.04
2019-05-18T11:11:22.434Z,27.48
2019-05-18T11:14:12.770Z,28.15
2019-05-18T11:16:56.140Z,28.36
2019-05-18T11:19:38.886Z,29.11
2019-05-18T11:22:29.259Z,27.90
2019-05-18T11:25:12.250Z,26.97
2019-05-18T11:28:02.638Z,26.73
2019-05-18T11:31:05.262Z,28.00
2019-05-18T11:33:55.601Z,29.07
2019-05-18T11:36:38.252Z,29.31
2019-05-18T11:39:28.601Z,27.93
2019-05-18T11:42:18.957Z,28.71
2019-05-18T11:45:01.712Z,27.87
2019-05-18T11:47:52.080Z,27.00
2019-05-18T11:50:35.206Z,26.41
2019-05-18T11:53:25.577Z,25.69
2019-05-18T11:56:08.245Z,26.01
2019-05-18T11:58:58.601Z,27.11
2019-05-18T12:02:01.450Z,26.31
2019-05-18T12:04:51.853Z,27.17
2019-05-18T12:07:42.213Z,26.66
2019-05-18T12:10:24.955Z,24.62
2019-05-18T12:13:15.304Z,24.37
2019-05-18T12:15:58.194Z,24.69
2019-05-18T12:18:48.536Z,26.23
2019-05-18T12:21:32.129Z,26.71
2019-05-18T12:24:22.504Z,26.77
2019-05-18T12:27:05.814Z,28.05
2019-05-18T12:29:56.167Z,29.17
2019-05-18T12:32:38.801Z,29.34
2019-05-18T12:35:29.232Z,29.16
2019-05-18T12:38:12.806Z,29.26
2019-05-18T12:44:04.795Z,28.27
2019-05-18T12:46:48.084Z,26.87
2019-05-18T12:49:38.499Z,27.02
2019-05-18T12:52:21.448Z,26.83
2019-05-18T12:58:20.481Z,25.24
2019-05-18T13:01:10.867Z,24.80
2019-05-18T13:03:53.487Z,24.54
2019-05-18T13:06:43.857Z,24.34
2019-05-18T13:09:46.335Z,23.88
2019-05-18T13:12:36.665Z,24.44
2019-05-18T13:15:27.158Z,24.09
2019-05-18T13:18:17.505Z,23.90
2019-05-18T13:21:00.326Z,24.46
2019-05-18T13:23:50.733Z,25.99
2019-05-18T13:26:33.311Z,26.33
2019-05-18T13:29:23.721Z,26.39
2019-05-18T13:32:06.394Z,26.33
2019-05-18T13:34:56.766Z,26.76
2019-05-18T13:37:40.081Z,26.95
2019-05-18T13:43:38.864Z,26.45
2019-05-18T13:46:29.215Z,26.82
2019-05-18T13:49:31.838Z,26.85
2019-05-18T13:52:22.186Z,27.85
2019-05-18T13:55:05.258Z,28.40
2019-05-18T13:57:55.752Z,28.75
2019-05-18T14:00:38.436Z,29.38
2019-05-18T14:03:28.792Z,29.69
2019-05-18T14:06:11.721Z,29.96
2019-05-18T14:09:02.085Z,29.92
2019-05-18T14:11:44.914Z,29.89
2019-05-18T14:17:43.218Z,29.66
2019-05-18T14:20:33.572Z,30.39
2019-05-18T14:23:16.606Z,30.11
2019-05-18T14:26:06.954Z,30.04
2019-05-18T14:28:50.256Z,30.13
2019-05-18T14:31:40.610Z,29.66
2019-05-18T14:34:23.807Z,29.31
2019-05-18T14:40:16.825Z,29.32
2019-05-18T14:43:00.036Z,29.22
2019-05-18T14:45:50.408Z,29.56
2019-05-18T14:48:40.772Z,30.14
2019-05-18T14:51:23.976Z,30.03
2019-05-18T14:54:14.308Z,30.53
2019-05-18T14:56:56.903Z,31.13
2019-05-18T14:59:47.257Z,32.34
2019-05-18T15:02:30.718Z,32.80
2019-05-18T15:05:21.052Z,32.79
2019-05-18T15:08:03.742Z,33.24
2019-05-18T15:13:56.088Z,34.21
2019-05-18T15:16:46.420Z,34.03
2019-05-18T15:19:29.281Z,33.11
2019-05-18T15:22:19.655Z,33.18
2019-05-18T15:25:03.470Z,32.02
2019-05-18T15:27:53.791Z,32.73
2019-05-18T15:30:36.936Z,35.32
2019-05-18T15:33:27.294Z,36.24
2019-05-18T15:36:10.052Z,37.35
2019-05-18T15:39:00.436Z,40.51
2019-05-18T15:41:42.987Z,42.25
2019-05-18T15:44:33.365Z,44.32
2019-05-18T15:47:16.904Z,44.53
2019-05-18T15:53:35.823Z,45.02
2019-05-18T15:56:26.214Z,44.70
2019-05-18T15:59:09.760Z,45.27
2019-05-18T16:02:00.113Z,45.48
2019-05-18T16:04:43.458Z,45.32
2019-05-18T16:07:33.797Z,45.11
2019-05-18T16:10:17.388Z,44.76
2019-05-18T16:13:08.673Z,44.21
2019-05-18T16:15:51.405Z,43.39
2019-05-18T16:18:41.762Z,42.99
2019-05-18T16:21:25.110Z,42.32
2019-05-18T16:24:15.488Z,42.48
2019-05-18T16:27:05.908Z,42.22
2019-05-18T16:29:48.717Z,42.13
2019-05-18T16:32:39.106Z,42.36
2019-05-18T16:35:22.268Z,41.65
2019-05-18T16:38:12.632Z,42.00
2019-05-18T16:40:55.220Z,42.35
2019-05-18T16:43:45.609Z,42.55
2019-05-18T16:46:28.932Z,42.11
2019-05-18T16:49:19.264Z,41.27
2019-05-18T16:52:02.034Z,41.52
2019-05-18T16:54:52.353Z,41.89
2019-05-18T16:57:35.120Z,41.90
2019-05-18T17:00:25.694Z,41.74
2019-05-18T17:03:08.413Z,41.80
2019-05-18T17:05:58.752Z,41.76
2019-05-18T17:09:01.215Z,41.97
2019-05-18T17:11:51.621Z,42.20
2019-05-18T17:14:35.209Z,42.17
2019-05-18T17:17:25.553Z,42.27
2019-05-18T17:20:08.436Z,42.30
2019-05-18T17:22:58.788Z,42.26
2019-05-18T17:25:41.946Z,42.44
2019-05-18T17:28:24.609Z,43.00
2019-05-18T17:31:14.975Z,43.45
2019-05-18T17:33:58.297Z,43.06
2019-05-18T17:36:52.579Z,43.32
2019-05-18T17:39:52.935Z,43.45
2019-05-18T17:42:43.324Z,43.68
2019-05-18T17:45:26.246Z,43.87
2019-05-18T17:48:16.578Z,44.44
2019-05-18T17:50:58.156Z,44.85
2019-05-18T17:53:41.067Z,45.06
2019-05-18T17:56:31.448Z,45.35
2019-05-18T17:59:15.039Z,45.59
2019-05-18T18:02:05.395Z,45.94
2019-05-18T18:04:48.415Z,46.23
2019-05-18T18:07:38.753Z,46.57
2019-05-18T18:10:41.270Z,46.88
2019-05-18T18:13:31.615Z,47.35
2019-05-18T18:16:14.592Z,48.01
2019-05-18T18:19:04.979Z,49.28
2019-05-18T18:22:08.146Z,50.42
2019-05-18T18:24:58.497Z,50.87
2019-05-18T18:27:41.784Z,51.63
2019-05-18T18:30:32.129Z,52.02
2019-05-18T18:33:15.599Z,52.23
2019-05-18T18:36:05.971Z,52.61
2019-05-18T18:38:49.481Z,53.02
2019-05-18T18:41:39.833Z,53.14
2019-05-18T18:44:23.199Z,53.43
2019-05-18T18:47:13.549Z,53.69
2019-05-18T18:49:56.447Z,53.90
2019-05-18T18:52:46.787Z,54.01
2019-05-18T18:55:29.945Z,54.21
2019-05-18T18:58:20.328Z,54.42
2019-05-18T19:01:03.468Z,54.94
2019-05-18T19:03:53.848Z,55.18
2019-05-18T19:06:37.268Z,55.53
2019-05-18T19:09:27.622Z,55.62
2019-05-18T19:12:10.842Z,55.96
2019-05-18T19:15:01.201Z,56.53
2019-05-18T19:17:44.289Z,57.41
2019-05-18T19:20:34.661Z,58.06
2019-05-18T19:23:17.716Z,58.64
2019-05-18T19:26:08.026Z,59.28
2019-05-18T19:28:51.355Z,59.53
2019-05-18T19:31:41.723Z,60.12
2019-05-18T19:34:24.852Z,60.92
2019-05-18T19:37:15.211Z,61.14
2019-05-18T19:39:58.719Z,61.08
2019-05-18T19:42:49.088Z,61.41
2019-05-18T19:45:32.251Z,61.44
2019-05-18T19:48:22.593Z,62.14
2019-05-18T19:51:05.206Z,62.33
2019-05-18T19:53:55.590Z,62.74
2019-05-18T19:56:41.782Z,63.04
2019-05-18T19:59:30.890Z,63.21
2019-05-18T20:02:18.224Z,63.53
2019-05-18T20:05:08.672Z,63.67
2019-05-18T20:08:10.975Z,63.60
2019-05-18T20:11:01.393Z,63.92
2019-05-18T20:13:44.472Z,64.04
2019-05-18T20:16:34.900Z,64.24
2019-05-18T20:19:39.563Z,64.18
2019-05-18T20:22:30.219Z,64.10
2019-05-18T20:25:17.620Z,64.04
2019-05-18T20:28:01.142Z,64.13
2019-05-18T20:30:51.583Z,64.21
2019-05-18T20:33:34.857Z,64.02
2019-05-18T20:36:25.155Z,64.14
2019-05-18T20:39:08.470Z,64.28
2019-05-18T20:41:58.975Z,64.39
2019-05-18T20:45:02.050Z,64.64
2019-05-18T20:48:12.643Z,64.80
2019-05-18T20:50:55.357Z,65.15
2019-05-18T20:53:45.712Z,65.52
2019-05-18T20:56:29.017Z,65.88
2019-05-18T20:59:19.418Z,66.20
2019-05-18T21:02:02.781Z,66.45
2019-05-18T21:04:53.156Z,66.35
2019-05-18T21:07:35.773Z,66.23
2019-05-18T21:10:26.167Z,66.12
2019-05-18T21:13:09.694Z,66.13
2019-05-18T21:16:00.062Z,66.33
2019-05-18T21:18:42.526Z,66.77
2019-05-18T21:21:32.891Z,66.87
2019-05-18T21:24:16.429Z,66.74
2019-05-18T21:27:06.737Z,66.33
2019-05-18T21:29:49.860Z,66.89
2019-05-18T21:32:40.244Z,67.15
2019-05-18T21:35:23.606Z,67.37
2019-05-18T21:38:14.034Z,66.99
2019-05-18T21:40:57.431Z,66.90
2019-05-18T21:43:47.788Z,66.68
2019-05-18T21:46:30.600Z,66.87
2019-05-18T21:49:20.964Z,66.63
2019-05-18T21:52:04.437Z,66.48
2019-05-18T21:54:54.805Z,66.83
2019-05-18T21:57:45.151Z,66.59
2019-05-18T22:00:35.656Z,66.03
2019-05-18T22:03:18.573Z,66.22
2019-05-18T22:06:08.971Z,66.33
2019-05-18T22:08:51.525Z,66.85
2019-05-18T22:11:35.377Z,67.05
2019-05-18T22:14:38.863Z,67.07
2019-05-18T22:17:30.472Z,67.47
2019-05-18T22:20:20.813Z,67.83
2019-05-18T22:23:03.696Z,68.86
2019-05-18T22:25:56.862Z,69.18
2019-05-18T22:28:58.464Z,69.00
2019-05-18T22:31:41.217Z,68.72
2019-05-18T22:34:31.577Z,68.53
2019-05-18T22:37:14.737Z,68.88
2019-05-18T22:40:05.665Z,69.24
2019-05-18T22:42:48.765Z,69.45
2019-05-18T22:45:39.150Z,69.66
2019-05-18T22:48:21.660Z,70.10
2019-05-18T22:51:12.045Z,70.72
2019-05-18T22:53:54.552Z,71.00
2019-05-18T22:56:44.922Z,71.33
2019-05-18T22:59:28.292Z,71.47
2019-05-18T23:02:18.669Z,71.75
2019-05-18T23:05:02.291Z,71.94
2019-05-18T23:07:52.506Z,71.98
2019-05-18T23:10:35.737Z,71.75
2019-05-18T23:13:26.041Z,71.61
2019-05-18T23:16:08.707Z,71.96
2019-05-18T23:18:59.133Z,72.25
2019-05-18T23:21:42.406Z,72.37
2019-05-18T23:24:32.742Z,72.37
2019-05-18T23:27:16.108Z,72.15
2019-05-18T23:29:58.640Z,72.06
2019-05-18T23:32:50.658Z,72.41
2019-05-18T23:35:53.214Z,72.65
2019-05-18T23:38:43.568Z,72.92
2019-05-18T23:41:26.729Z,72.99
2019-05-18T23:44:17.112Z,72.82
2019-05-18T23:46:59.914Z,72.64
2019-05-18T23:49:31.217Z,72.83
2019-05-18T23:52:21.606Z,72.98
2019-05-18T23:55:04.620Z,73.23
2019-05-18T23:57:54.993Z,73.59
